sensor_id;sensor_type;location;lat;lon;timestamp;P1;durP1;ratioP1;P2;durP2;ratioP2
20802;SDS011;10562;-33.856;151.182;2022-12-07T00:00:17;18.27;;;3.20;;
20802;SDS011;10562;-33.856;151.182;2022-12-07T00:02:48;7.68;;;2.30;;
20802;SDS011;10562;-33.856;151.182;2022-12-07T00:05:19;14.35;;;2.60;;
20802;SDS011;10562;-33.856;151.182;2022-12-07T00:07:50;11.43;;;2.67;;
20802;SDS011;10562;-33.856;151.182;2022-12-07T00:10:23;12.45;;;2.50;;
20802;SDS011;10562;-33.856;151.182;2022-12-07T00:12:54;11.65;;;2.70;;
20802;SDS011;10562;-33.856;151.182;2022-12-07T00:15:25;13.20;;;2.58;;
20802;SDS011;10562;-33.856;151.182;2022-12-07T00:17:56;24.77;;;3.85;;
20802;SDS011;10562;-33.856;151.182;2022-12-07T00:20:27;13.55;;;3.10;;
20802;SDS011;10562;-33.856;151.182;2022-12-07T00:22:59;15.32;;;3.10;;
20802;SDS011;10562;-33.856;151.182;2022-12-07T00:25:32;10.85;;;2.78;;
20802;SDS011;10562;-33.856;151.182;2022-12-07T00:28:04;15.07;;;3.25;;
20802;SDS011;10562;-33.856;151.182;2022-12-07T00:30:37;11.25;;;2.70;;
20802;SDS011;10562;-33.856;151.182;2022-12-07T00:33:07;9.60;;;2.63;;
20802;SDS011;10562;-33.856;151.182;2022-12-07T00:35:38;10.50;;;2.47;;
20802;SDS011;10562;-33.856;151.182;2022-12-07T00:38:09;9.93;;;2.53;;
20802;SDS011;10562;-33.856;151.182;2022-12-07T00:40:42;12.60;;;2.85;;
20802;SDS011;10562;-33.856;151.182;2022-12-07T00:43:13;9.45;;;2.60;;
20802;SDS011;10562;-33.856;151.182;2022-12-07T00:45:44;12.82;;;2.67;;
20802;SDS011;10562;-33.856;151.182;2022-12-07T00:48:15;14.63;;;2.67;;
20802;SDS011;10562;-33.856;151.182;2022-12-07T00:50:46;13.45;;;3.08;;
20802;SDS011;10562;-33.856;151.182;2022-12-07T00:53:18;11.05;;;2.63;;
20802;SDS011;10562;-33.856;151.182;2022-12-07T00:55:51;16.20;;;2.58;;
20802;SDS011;10562;-33.856;151.182;2022-12-07T00:58:22;9.55;;;2.53;;
20802;SDS011;10562;-33.856;151.182;2022-12-07T01:00:53;9.05;;;2.40;;
20802;SDS011;10562;-33.856;151.182;2022-12-07T01:03:28;10.75;;;2.40;;
20802;SDS011;10562;-33.856;151.182;2022-12-07T01:05:59;7.28;;;2.28;;
20802;SDS011;10562;-33.856;151.182;2022-12-07T01:08:31;11.18;;;2.45;;
20802;SDS011;10562;-33.856;151.182;2022-12-07T01:11:04;10.80;;;2.40;;
20802;SDS011;10562;-33.856;151.182;2022-12-07T01:13:36;11.68;;;2.30;;
20802;SDS011;10562;-33.856;151.182;2022-12-07T01:16:07;10.82;;;2.22;;
20802;SDS011;10562;-33.856;151.182;2022-12-07T01:18:39;10.70;;;2.50;;
20802;SDS011;10562;-33.856;151.182;2022-12-07T01:21:11;13.68;;;2.40;;
20802;SDS011;10562;-33.856;151.182;2022-12-07T01:23:43;15.18;;;2.95;;
20802;SDS011;10562;-33.856;151.182;2022-12-07T01:26:17;10.55;;;2.45;;
20802;SDS011;10562;-33.856;151.182;2022-12-07T01:28:49;11.20;;;2.50;;
20802;SDS011;10562;-33.856;151.182;2022-12-07T01:31:21;7.90;;;2.65;;
20802;SDS011;10562;-33.856;151.182;2022-12-07T01:33:55;11.45;;;2.40;;
20802;SDS011;10562;-33.856;151.182;2022-12-07T01:36:28;12.18;;;2.75;;
20802;SDS011;10562;-33.856;151.182;2022-12-07T01:39:01;11.80;;;2.95;;
20802;SDS011;10562;-33.856;151.182;2022-12-07T01:41:36;9.68;;;2.47;;
20802;SDS011;10562;-33.856;151.182;2022-12-07T01:44:10;11.57;;;2.45;;
20802;SDS011;10562;-33.856;151.182;2022-12-07T01:46:46;8.80;;;2.55;;
20802;SDS011;10562;-33.856;151.182;2022-12-07T01:49:20;10.70;;;2.40;;
20802;SDS011;10562;-33.856;151.182;2022-12-07T01:51:58;13.07;;;3.13;;
20802;SDS011;10562;-33.856;151.182;2022-12-07T01:54:33;15.48;;;3.55;;
20802;SDS011;10562;-33.856;151.182;2022-12-07T01:57:07;15.02;;;4.10;;
20802;SDS011;10562;-33.856;151.182;2022-12-07T01:59:39;15.80;;;4.05;;
20802;SDS011;10562;-33.856;151.182;2022-12-07T02:02:13;8.82;;;3.47;;
20802;SDS011;10562;-33.856;151.182;2022-12-07T02:04:48;10.85;;;3.90;;
20802;SDS011;10562;-33.856;151.182;2022-12-07T02:07:22;15.50;;;3.90;;
20802;SDS011;10562;-33.856;151.182;2022-12-07T02:09:54;10.10;;;3.72;;
20802;SDS011;10562;-33.856;151.182;2022-12-07T02:12:26;10.98;;;3.70;;
20802;SDS011;10562;-33.856;151.182;2022-12-07T02:14:57;13.35;;;3.40;;
20802;SDS011;10562;-33.856;151.182;2022-12-07T02:17:28;10.77;;;4.32;;
20802;SDS011;10562;-33.856;151.182;2022-12-07T02:26:02;12.63;;;3.45;;
20802;SDS011;10562;-33.856;151.182;2022-12-07T02:29:05;8.73;;;2.83;;
20802;SDS011;10562;-33.856;151.182;2022-12-07T02:31:43;11.15;;;3.17;;
20802;SDS011;10562;-33.856;151.182;2022-12-07T02:34:23;10.63;;;2.95;;
20802;SDS011;10562;-33.856;151.182;2022-12-07T02:37:06;18.35;;;3.95;;
20802;SDS011;10562;-33.856;151.182;2022-12-07T02:39:40;14.57;;;3.50;;
20802;SDS011;10562;-33.856;151.182;2022-12-07T02:42:16;9.93;;;3.17;;
20802;SDS011;10562;-33.856;151.182;2022-12-07T02:44:51;11.70;;;2.92;;
20802;SDS011;10562;-33.856;151.182;2022-12-07T02:47:22;8.13;;;3.22;;
20802;SDS011;10562;-33.856;151.182;2022-12-07T02:49:55;12.15;;;3.70;;
20802;SDS011;10562;-33.856;151.182;2022-12-07T02:52:26;10.43;;;3.47;;
20802;SDS011;10562;-33.856;151.182;2022-12-07T02:54:57;15.40;;;4.07;;
20802;SDS011;10562;-33.856;151.182;2022-12-07T02:57:34;14.88;;;4.50;;
20802;SDS011;10562;-33.856;151.182;2022-12-07T03:00:20;12.98;;;4.35;;
20802;SDS011;10562;-33.856;151.182;2022-12-07T03:02:53;15.65;;;3.92;;
20802;SDS011;10562;-33.856;151.182;2022-12-07T03:05:33;10.45;;;4.07;;
20802;SDS011;10562;-33.856;151.182;2022-12-07T03:08:15;18.05;;;4.45;;
20802;SDS011;10562;-33.856;151.182;2022-12-07T03:10:56;15.07;;;4.32;;
20802;SDS011;10562;-33.856;151.182;2022-12-07T03:13:34;13.32;;;4.63;;
20802;SDS011;10562;-33.856;151.182;2022-12-07T03:16:14;12.25;;;4.90;;
20802;SDS011;10562;-33.856;151.182;2022-12-07T03:18:47;16.25;;;4.90;;
20802;SDS011;10562;-33.856;151.182;2022-12-07T03:21:22;18.35;;;4.68;;
20802;SDS011;10562;-33.856;151.182;2022-12-07T03:23:56;16.23;;;4.57;;
20802;SDS011;10562;-33.856;151.182;2022-12-07T03:26:30;15.95;;;3.95;;
20802;SDS011;10562;-33.856;151.182;2022-12-07T03:29:05;12.93;;;3.85;;
20802;SDS011;10562;-33.856;151.182;2022-12-07T03:31:41;11.05;;;3.40;;
20802;SDS011;10562;-33.856;151.182;2022-12-07T03:34:18;12.02;;;3.60;;
20802;SDS011;10562;-33.856;151.182;2022-12-07T03:36:56;12.10;;;3.13;;
20802;SDS011;10562;-33.856;151.182;2022-12-07T03:39:32;16.45;;;3.28;;
20802;SDS011;10562;-33.856;151.182;2022-12-07T03:42:06;13.68;;;3.58;;
20802;SDS011;10562;-33.856;151.182;2022-12-07T03:44:39;13.10;;;4.18;;
20802;SDS011;10562;-33.856;151.182;2022-12-07T03:47:13;17.90;;;4.07;;
20802;SDS011;10562;-33.856;151.182;2022-12-07T03:49:55;13.20;;;4.10;;
20802;SDS011;10562;-33.856;151.182;2022-12-07T03:52:30;11.95;;;3.80;;
20802;SDS011;10562;-33.856;151.182;2022-12-07T03:55:06;13.18;;;4.00;;
20802;SDS011;10562;-33.856;151.182;2022-12-07T03:57:44;11.85;;;3.10;;
20802;SDS011;10562;-33.856;151.182;2022-12-07T04:00:17;11.52;;;3.45;;
20802;SDS011;10562;-33.856;151.182;2022-12-07T04:02:50;16.42;;;3.20;;
20802;SDS011;10562;-33.856;151.182;2022-12-07T04:05:22;15.60;;;3.20;;
20802;SDS011;10562;-33.856;151.182;2022-12-07T04:07:55;16.73;;;3.30;;
20802;SDS011;10562;-33.856;151.182;2022-12-07T04:10:26;15.75;;;3.30;;
20802;SDS011;10562;-33.856;151.182;2022-12-07T04:12:57;11.55;;;3.15;;
20802;SDS011;10562;-33.856;151.182;2022-12-07T04:15:28;9.63;;;2.85;;
20802;SDS011;10562;-33.856;151.182;2022-12-07T04:18:01;10.70;;;2.67;;
20802;SDS011;10562;-33.856;151.182;2022-12-07T04:20:32;10.85;;;2.92;;
20802;SDS011;10562;-33.856;151.182;2022-12-07T04:23:03;9.30;;;2.90;;
20802;SDS011;10562;-33.856;151.182;2022-12-07T04:25:33;9.50;;;2.90;;
20802;SDS011;10562;-33.856;151.182;2022-12-07T04:28:04;11.18;;;3.05;;
20802;SDS011;10562;-33.856;151.182;2022-12-07T04:30:35;11.20;;;2.90;;
20802;SDS011;10562;-33.856;151.182;2022-12-07T04:33:08;11.43;;;2.97;;
20802;SDS011;10562;-33.856;151.182;2022-12-07T04:35:39;13.70;;;3.00;;
20802;SDS011;10562;-33.856;151.182;2022-12-07T04:38:11;12.48;;;2.60;;
20802;SDS011;10562;-33.856;151.182;2022-12-07T04:40:42;8.80;;;2.00;;
20802;SDS011;10562;-33.856;151.182;2022-12-07T04:43:13;5.50;;;1.35;;
20802;SDS011;10562;-33.856;151.182;2022-12-07T04:45:46;6.35;;;0.90;;
20802;SDS011;10562;-33.856;151.182;2022-12-07T04:48:19;2.45;;;0.82;;
20802;SDS011;10562;-33.856;151.182;2022-12-07T04:50:50;2.65;;;0.63;;
20802;SDS011;10562;-33.856;151.182;2022-12-07T04:53:21;3.65;;;0.60;;
20802;SDS011;10562;-33.856;151.182;2022-12-07T04:55:53;1.75;;;0.50;;
20802;SDS011;10562;-33.856;151.182;2022-12-07T04:58:24;1.55;;;0.60;;
20802;SDS011;10562;-33.856;151.182;2022-12-07T05:00:55;3.13;;;0.75;;
20802;SDS011;10562;-33.856;151.182;2022-12-07T05:03:28;1.95;;;0.52;;
20802;SDS011;10562;-33.856;151.182;2022-12-07T05:05:58;2.40;;;0.50;;
20802;SDS011;10562;-33.856;151.182;2022-12-07T05:08:29;3.28;;;0.60;;
20802;SDS011;10562;-33.856;151.182;2022-12-07T05:11:01;2.88;;;0.55;;
20802;SDS011;10562;-33.856;151.182;2022-12-07T05:13:34;2.47;;;0.80;;
20802;SDS011;10562;-33.856;151.182;2022-12-07T05:16:06;4.65;;;0.80;;
20802;SDS011;10562;-33.856;151.182;2022-12-07T05:18:39;6.53;;;0.70;;
20802;SDS011;10562;-33.856;151.182;2022-12-07T05:21:10;4.60;;;0.77;;
20802;SDS011;10562;-33.856;151.182;2022-12-07T05:23:41;1.42;;;0.47;;
20802;SDS011;10562;-33.856;151.182;2022-12-07T05:26:12;1.83;;;0.40;;
20802;SDS011;10562;-33.856;151.182;2022-12-07T05:28:43;4.53;;;0.85;;
20802;SDS011;10562;-33.856;151.182;2022-12-07T05:31:14;1.98;;;0.80;;
20802;SDS011;10562;-33.856;151.182;2022-12-07T05:33:47;3.17;;;0.80;;
20802;SDS011;10562;-33.856;151.182;2022-12-07T05:36:18;4.60;;;0.65;;
20802;SDS011;10562;-33.856;151.182;2022-12-07T05:38:49;4.97;;;0.70;;
20802;SDS011;10562;-33.856;151.182;2022-12-07T05:41:20;3.38;;;0.88;;
20802;SDS011;10562;-33.856;151.182;2022-12-07T05:44:07;2.60;;;0.70;;
20802;SDS011;10562;-33.856;151.182;2022-12-07T05:46:38;1.77;;;0.60;;
20802;SDS011;10562;-33.856;151.182;2022-12-07T05:49:10;3.00;;;0.50;;
20802;SDS011;10562;-33.856;151.182;2022-12-07T05:51:41;2.97;;;0.50;;
20802;SDS011;10562;-33.856;151.182;2022-12-07T05:54:12;2.35;;;0.70;;
20802;SDS011;10562;-33.856;151.182;2022-12-07T05:56:43;2.58;;;0.60;;
20802;SDS011;10562;-33.856;151.182;2022-12-07T05:59:14;4.50;;;1.00;;
20802;SDS011;10562;-33.856;151.182;2022-12-07T06:01:50;1.98;;;0.73;;
20802;SDS011;10562;-33.856;151.182;2022-12-07T06:04:23;4.43;;;0.70;;
20802;SDS011;10562;-33.856;151.182;2022-12-07T06:06:55;3.92;;;0.57;;
20802;SDS011;10562;-33.856;151.182;2022-12-07T06:09:27;1.95;;;0.60;;
20802;SDS011;10562;-33.856;151.182;2022-12-07T06:11:58;2.28;;;0.80;;
20802;SDS011;10562;-33.856;151.182;2022-12-07T06:14:45;3.60;;;0.82;;
20802;SDS011;10562;-33.856;151.182;2022-12-07T06:17:16;5.50;;;1.02;;
20802;SDS011;10562;-33.856;151.182;2022-12-07T06:19:49;2.90;;;1.42;;
20802;SDS011;10562;-33.856;151.182;2022-12-07T06:22:20;2.97;;;0.90;;
20802;SDS011;10562;-33.856;151.182;2022-12-07T06:24:52;3.40;;;1.00;;
20802;SDS011;10562;-33.856;151.182;2022-12-07T06:27:23;3.78;;;0.70;;
20802;SDS011;10562;-33.856;151.182;2022-12-07T06:29:54;5.03;;;0.70;;
20802;SDS011;10562;-33.856;151.182;2022-12-07T06:32:25;4.80;;;0.90;;
20802;SDS011;10562;-33.856;151.182;2022-12-07T06:34:58;3.80;;;0.90;;
20802;SDS011;10562;-33.856;151.182;2022-12-07T06:37:30;5.47;;;0.85;;
20802;SDS011;10562;-33.856;151.182;2022-12-07T06:40:03;3.28;;;0.90;;
20802;SDS011;10562;-33.856;151.182;2022-12-07T06:42:36;2.58;;;0.57;;
20802;SDS011;10562;-33.856;151.182;2022-12-07T06:45:07;1.52;;;0.60;;
20802;SDS011;10562;-33.856;151.182;2022-12-07T06:47:38;3.83;;;0.75;;
20802;SDS011;10562;-33.856;151.182;2022-12-07T06:50:11;2.05;;;0.80;;
20802;SDS011;10562;-33.856;151.182;2022-12-07T06:52:42;1.58;;;0.60;;
20802;SDS011;10562;-33.856;151.182;2022-12-07T06:55:13;4.32;;;0.82;;
20802;SDS011;10562;-33.856;151.182;2022-12-07T06:57:44;2.45;;;0.70;;
20802;SDS011;10562;-33.856;151.182;2022-12-07T07:00:15;4.68;;;0.80;;
20802;SDS011;10562;-33.856;151.182;2022-12-07T07:02:46;2.70;;;0.80;;
20802;SDS011;10562;-33.856;151.182;2022-12-07T07:05:19;2.60;;;0.60;;
20802;SDS011;10562;-33.856;151.182;2022-12-07T07:07:50;1.70;;;0.60;;
20802;SDS011;10562;-33.856;151.182;2022-12-07T07:10:21;1.58;;;0.68;;
20802;SDS011;10562;-33.856;151.182;2022-12-07T07:12:52;4.30;;;0.70;;
20802;SDS011;10562;-33.856;151.182;2022-12-07T07:15:23;3.25;;;0.75;;
20802;SDS011;10562;-33.856;151.182;2022-12-07T07:17:54;2.58;;;0.90;;
20802;SDS011;10562;-33.856;151.182;2022-12-07T07:20:27;6.57;;;1.20;;
20802;SDS011;10562;-33.856;151.182;2022-12-07T07:23:01;5.07;;;0.93;;
20802;SDS011;10562;-33.856;151.182;2022-12-07T07:25:32;3.45;;;0.73;;
20802;SDS011;10562;-33.856;151.182;2022-12-07T07:28:03;1.63;;;0.80;;
20802;SDS011;10562;-33.856;151.182;2022-12-07T07:30:34;2.90;;;0.65;;
20802;SDS011;10562;-33.856;151.182;2022-12-07T07:33:05;4.43;;;0.80;;
20802;SDS011;10562;-33.856;151.182;2022-12-07T07:35:38;2.60;;;0.70;;
20802;SDS011;10562;-33.856;151.182;2022-12-07T07:38:09;3.10;;;0.63;;
20802;SDS011;10562;-33.856;151.182;2022-12-07T07:40:40;2.80;;;0.90;;
20802;SDS011;10562;-33.856;151.182;2022-12-07T07:43:10;2.22;;;0.90;;
20802;SDS011;10562;-33.856;151.182;2022-12-07T07:45:41;2.72;;;0.98;;
20802;SDS011;10562;-33.856;151.182;2022-12-07T07:48:13;1.80;;;0.85;;
20802;SDS011;10562;-33.856;151.182;2022-12-07T07:50:45;2.78;;;0.60;;
20802;SDS011;10562;-33.856;151.182;2022-12-07T07:53:16;2.90;;;0.60;;
20802;SDS011;10562;-33.856;151.182;2022-12-07T07:55:51;2.33;;;0.65;;
20802;SDS011;10562;-33.856;151.182;2022-12-07T07:58:22;2.60;;;0.77;;
20802;SDS011;10562;-33.856;151.182;2022-12-07T08:00:54;1.48;;;0.65;;
20802;SDS011;10562;-33.856;151.182;2022-12-07T08:03:25;3.28;;;0.60;;
20802;SDS011;10562;-33.856;151.182;2022-12-07T08:05:58;4.20;;;1.20;;
20802;SDS011;10562;-33.856;151.182;2022-12-07T08:08:31;1.85;;;0.98;;
20802;SDS011;10562;-33.856;151.182;2022-12-07T08:11:05;2.17;;;0.80;;
20802;SDS011;10562;-33.856;151.182;2022-12-07T08:13:36;2.20;;;0.88;;
20802;SDS011;10562;-33.856;151.182;2022-12-07T08:16:08;4.03;;;0.80;;
20802;SDS011;10562;-33.856;151.182;2022-12-07T08:18:41;1.55;;;0.80;;
20802;SDS011;10562;-33.856;151.182;2022-12-07T08:21:14;1.58;;;0.65;;
20802;SDS011;10562;-33.856;151.182;2022-12-07T08:23:45;1.85;;;0.65;;
20802;SDS011;10562;-33.856;151.182;2022-12-07T08:26:17;0.93;;;0.70;;
20802;SDS011;10562;-33.856;151.182;2022-12-07T08:28:48;1.73;;;0.70;;
20802;SDS011;10562;-33.856;151.182;2022-12-07T08:31:18;3.92;;;0.70;;
20802;SDS011;10562;-33.856;151.182;2022-12-07T08:33:49;2.67;;;0.75;;
20802;SDS011;10562;-33.856;151.182;2022-12-07T08:36:23;3.55;;;0.50;;
20802;SDS011;10562;-33.856;151.182;2022-12-07T08:38:54;2.22;;;0.68;;
20802;SDS011;10562;-33.856;151.182;2022-12-07T08:41:25;1.73;;;0.60;;
20802;SDS011;10562;-33.856;151.182;2022-12-07T08:43:55;4.40;;;0.60;;
20802;SDS011;10562;-33.856;151.182;2022-12-07T08:46:26;1.05;;;0.47;;
20802;SDS011;10562;-33.856;151.182;2022-12-07T08:49:04;2.55;;;0.70;;
20802;SDS011;10562;-33.856;151.182;2022-12-07T08:51:41;1.80;;;0.63;;
20802;SDS011;10562;-33.856;151.182;2022-12-07T08:54:13;1.88;;;0.70;;
20802;SDS011;10562;-33.856;151.182;2022-12-07T08:56:46;3.97;;;1.15;;
20802;SDS011;10562;-33.856;151.182;2022-12-07T08:59:19;2.33;;;0.90;;
20802;SDS011;10562;-33.856;151.182;2022-12-07T09:01:51;1.83;;;0.90;;
20802;SDS011;10562;-33.856;151.182;2022-12-07T09:04:22;2.00;;;0.60;;
20802;SDS011;10562;-33.856;151.182;2022-12-07T09:06:55;0.80;;;0.60;;
20802;SDS011;10562;-33.856;151.182;2022-12-07T09:09:27;3.40;;;0.80;;
20802;SDS011;10562;-33.856;151.182;2022-12-07T09:11:58;1.33;;;0.70;;
20802;SDS011;10562;-33.856;151.182;2022-12-07T09:14:29;1.40;;;0.70;;
20802;SDS011;10562;-33.856;151.182;2022-12-07T09:17:05;2.13;;;1.10;;
20802;SDS011;10562;-33.856;151.182;2022-12-07T09:19:36;1.38;;;0.70;;
20802;SDS011;10562;-33.856;151.182;2022-12-07T09:22:10;3.15;;;0.98;;
20802;SDS011;10562;-33.856;151.182;2022-12-07T09:24:41;1.95;;;0.68;;
20802;SDS011;10562;-33.856;151.182;2022-12-07T09:27:13;2.17;;;0.80;;
20802;SDS011;10562;-33.856;151.182;2022-12-07T09:29:44;1.05;;;0.70;;
20802;SDS011;10562;-33.856;151.182;2022-12-07T09:32:15;2.08;;;0.90;;
20802;SDS011;10562;-33.856;151.182;2022-12-07T09:34:46;2.03;;;0.85;;
20802;SDS011;10562;-33.856;151.182;2022-12-07T09:37:19;4.90;;;1.20;;
20802;SDS011;10562;-33.856;151.182;2022-12-07T09:39:50;2.58;;;1.13;;
20802;SDS011;10562;-33.856;151.182;2022-12-07T09:42:25;2.47;;;1.30;;
20802;SDS011;10562;-33.856;151.182;2022-12-07T09:44:59;4.93;;;1.20;;
20802;SDS011;10562;-33.856;151.182;2022-12-07T09:47:31;2.17;;;1.10;;
20802;SDS011;10562;-33.856;151.182;2022-12-07T09:50:04;2.88;;;0.85;;
20802;SDS011;10562;-33.856;151.182;2022-12-07T09:52:43;2.72;;;1.10;;
20802;SDS011;10562;-33.856;151.182;2022-12-07T09:55:16;2.63;;;1.30;;
20802;SDS011;10562;-33.856;151.182;2022-12-07T09:57:52;2.80;;;1.33;;
20802;SDS011;10562;-33.856;151.182;2022-12-07T10:00:23;5.68;;;1.40;;
20802;SDS011;10562;-33.856;151.182;2022-12-07T10:02:55;2.47;;;0.90;;
20802;SDS011;10562;-33.856;151.182;2022-12-07T10:05:27;1.73;;;0.90;;
20802;SDS011;10562;-33.856;151.182;2022-12-07T10:08:01;1.95;;;0.90;;
20802;SDS011;10562;-33.856;151.182;2022-12-07T10:10:33;1.52;;;0.90;;
20802;SDS011;10562;-33.856;151.182;2022-12-07T10:13:06;1.65;;;0.73;;
20802;SDS011;10562;-33.856;151.182;2022-12-07T10:15:42;2.75;;;0.90;;
20802;SDS011;10562;-33.856;151.182;2022-12-07T10:18:20;1.70;;;0.90;;
20802;SDS011;10562;-33.856;151.182;2022-12-07T10:21:08;2.50;;;0.82;;
20802;SDS011;10562;-33.856;151.182;2022-12-07T10:23:58;2.60;;;1.10;;
20802;SDS011;10562;-33.856;151.182;2022-12-07T10:26:32;1.13;;;0.75;;
20802;SDS011;10562;-33.856;151.182;2022-12-07T10:29:13;1.05;;;0.70;;
20802;SDS011;10562;-33.856;151.182;2022-12-07T10:31:54;2.17;;;0.90;;
20802;SDS011;10562;-33.856;151.182;2022-12-07T10:34:26;2.03;;;0.80;;
20802;SDS011;10562;-33.856;151.182;2022-12-07T10:37:13;2.80;;;1.00;;
20802;SDS011;10562;-33.856;151.182;2022-12-07T10:39:48;1.30;;;0.80;;
20802;SDS011;10562;-33.856;151.182;2022-12-07T10:42:20;1.63;;;0.80;;
20802;SDS011;10562;-33.856;151.182;2022-12-07T10:45:07;2.08;;;0.90;;
20802;SDS011;10562;-33.856;151.182;2022-12-07T10:47:42;3.10;;;0.82;;
20802;SDS011;10562;-33.856;151.182;2022-12-07T10:50:29;3.40;;;0.75;;
20802;SDS011;10562;-33.856;151.182;2022-12-07T10:53:18;2.35;;;0.85;;
20802;SDS011;10562;-33.856;151.182;2022-12-07T10:56:06;2.33;;;0.70;;
20802;SDS011;10562;-33.856;151.182;2022-12-07T10:59:09;2.55;;;0.70;;
20802;SDS011;10562;-33.856;151.182;2022-12-07T11:02:09;3.13;;;0.80;;
20802;SDS011;10562;-33.856;151.182;2022-12-07T11:05:01;1.75;;;0.80;;
20802;SDS011;10562;-33.856;151.182;2022-12-07T11:07:38;2.25;;;0.70;;
20802;SDS011;10562;-33.856;151.182;2022-12-07T11:10:17;2.25;;;0.82;;
20802;SDS011;10562;-33.856;151.182;2022-12-07T11:18:51;2.65;;;0.90;;
20802;SDS011;10562;-33.856;151.182;2022-12-07T11:21:42;1.92;;;0.70;;
20802;SDS011;10562;-33.856;151.182;2022-12-07T11:24:18;1.38;;;0.70;;
20802;SDS011;10562;-33.856;151.182;2022-12-07T11:26:58;3.58;;;0.80;;
20802;SDS011;10562;-33.856;151.182;2022-12-07T11:32:57;3.65;;;1.00;;
20802;SDS011;10562;-33.856;151.182;2022-12-07T11:35:40;2.70;;;0.90;;
20802;SDS011;10562;-33.856;151.182;2022-12-07T11:38:23;3.28;;;0.90;;
20802;SDS011;10562;-33.856;151.182;2022-12-07T11:41:01;3.88;;;0.80;;
20802;SDS011;10562;-33.856;151.182;2022-12-07T11:43:52;2.03;;;0.75;;
20802;SDS011;10562;-33.856;151.182;2022-12-07T11:46:28;3.88;;;0.88;;
20802;SDS011;10562;-33.856;151.182;2022-12-07T11:49:17;2.08;;;0.90;;
20802;SDS011;10562;-33.856;151.182;2022-12-07T11:51:53;2.95;;;0.80;;
20802;SDS011;10562;-33.856;151.182;2022-12-07T11:54:28;1.05;;;0.70;;
20802;SDS011;10562;-33.856;151.182;2022-12-07T11:57:05;4.10;;;1.20;;
20802;SDS011;10562;-33.856;151.182;2022-12-07T11:59:44;2.67;;;1.02;;
20802;SDS011;10562;-33.856;151.182;2022-12-07T12:02:21;3.10;;;0.80;;
20802;SDS011;10562;-33.856;151.182;2022-12-07T12:05:01;1.40;;;0.80;;
20802;SDS011;10562;-33.856;151.182;2022-12-07T12:07:43;1.75;;;0.85;;
20802;SDS011;10562;-33.856;151.182;2022-12-07T12:10:18;5.78;;;1.02;;
20802;SDS011;10562;-33.856;151.182;2022-12-07T12:13:00;2.72;;;0.90;;
20802;SDS011;10562;-33.856;151.182;2022-12-07T12:15:56;4.50;;;0.90;;
20802;SDS011;10562;-33.856;151.182;2022-12-07T12:18:49;2.00;;;0.90;;
20802;SDS011;10562;-33.856;151.182;2022-12-07T12:21:35;2.00;;;0.80;;
20802;SDS011;10562;-33.856;151.182;2022-12-07T12:24:09;2.97;;;0.80;;
20802;SDS011;10562;-33.856;151.182;2022-12-07T12:26:48;2.10;;;0.93;;
20802;SDS011;10562;-33.856;151.182;2022-12-07T12:29:23;2.45;;;0.90;;
20802;SDS011;10562;-33.856;151.182;2022-12-07T12:32:07;3.55;;;0.90;;
20802;SDS011;10562;-33.856;151.182;2022-12-07T12:34:57;1.58;;;1.00;;
20802;SDS011;10562;-33.856;151.182;2022-12-07T12:37:51;3.20;;;0.80;;
20802;SDS011;10562;-33.856;151.182;2022-12-07T12:55:23;3.60;;;1.00;;
20802;SDS011;10562;-33.856;151.182;2022-12-07T13:04:24;4.70;;;0.90;;
20802;SDS011;10562;-33.856;151.182;2022-12-07T13:06:58;3.63;;;0.90;;
20802;SDS011;10562;-33.856;151.182;2022-12-07T13:09:29;3.45;;;1.05;;
20802;SDS011;10562;-33.856;151.182;2022-12-07T13:12:05;2.67;;;1.00;;
20802;SDS011;10562;-33.856;151.182;2022-12-07T13:14:56;1.98;;;0.70;;
20802;SDS011;10562;-33.856;151.182;2022-12-07T13:20:52;1.15;;;0.80;;
20802;SDS011;10562;-33.856;151.182;2022-12-07T13:23:28;1.75;;;0.70;;
20802;SDS011;10562;-33.856;151.182;2022-12-07T13:26:03;4.93;;;0.75;;
20802;SDS011;10562;-33.856;151.182;2022-12-07T13:28:48;2.00;;;0.90;;
20802;SDS011;10562;-33.856;151.182;2022-12-07T13:31:23;1.00;;;0.60;;
20802;SDS011;10562;-33.856;151.182;2022-12-07T13:34:02;1.58;;;0.70;;
20802;SDS011;10562;-33.856;151.182;2022-12-07T13:36:36;0.95;;;0.63;;
20802;SDS011;10562;-33.856;151.182;2022-12-07T13:39:15;1.48;;;0.80;;
20802;SDS011;10562;-33.856;151.182;2022-12-07T13:41:50;3.28;;;0.80;;
20802;SDS011;10562;-33.856;151.182;2022-12-07T13:44:25;1.08;;;0.70;;
20802;SDS011;10562;-33.856;151.182;2022-12-07T13:46:59;1.33;;;0.88;;
20802;SDS011;10562;-33.856;151.182;2022-12-07T13:49:37;1.05;;;0.80;;
20802;SDS011;10562;-33.856;151.182;2022-12-07T13:52:16;2.20;;;0.90;;
20802;SDS011;10562;-33.856;151.182;2022-12-07T13:54:49;1.73;;;0.70;;
20802;SDS011;10562;-33.856;151.182;2022-12-07T13:57:26;9.38;;;1.60;;
20802;SDS011;10562;-33.856;151.182;2022-12-07T14:00:03;2.28;;;0.93;;
20802;SDS011;10562;-33.856;151.182;2022-12-07T14:02:53;1.65;;;0.90;;
20802;SDS011;10562;-33.856;151.182;2022-12-07T14:05:26;1.35;;;0.80;;
20802;SDS011;10562;-33.856;151.182;2022-12-07T14:07:58;4.25;;;1.02;;
20802;SDS011;10562;-33.856;151.182;2022-12-07T14:10:29;1.73;;;0.95;;
20802;SDS011;10562;-33.856;151.182;2022-12-07T14:13:02;4.47;;;0.90;;
20802;SDS011;10562;-33.856;151.182;2022-12-07T14:15:54;1.33;;;0.80;;
20802;SDS011;10562;-33.856;151.182;2022-12-07T14:18:26;2.88;;;0.90;;
20802;SDS011;10562;-33.856;151.182;2022-12-07T14:21:04;2.38;;;0.95;;
20802;SDS011;10562;-33.856;151.182;2022-12-07T14:23:35;2.90;;;0.90;;
20802;SDS011;10562;-33.856;151.182;2022-12-07T14:26:08;1.67;;;0.90;;
20802;SDS011;10562;-33.856;151.182;2022-12-07T14:28:42;2.45;;;1.05;;
20802;SDS011;10562;-33.856;151.182;2022-12-07T14:31:16;1.17;;;0.80;;
20802;SDS011;10562;-33.856;151.182;2022-12-07T14:33:53;3.78;;;0.80;;
20802;SDS011;10562;-33.856;151.182;2022-12-07T14:36:28;4.10;;;1.00;;
20802;SDS011;10562;-33.856;151.182;2022-12-07T14:38:58;1.85;;;0.93;;
20802;SDS011;10562;-33.856;151.182;2022-12-07T14:41:29;4.85;;;0.90;;
20802;SDS011;10562;-33.856;151.182;2022-12-07T14:44:16;3.47;;;0.82;;
20802;SDS011;10562;-33.856;151.182;2022-12-07T14:46:50;1.70;;;0.80;;
20802;SDS011;10562;-33.856;151.182;2022-12-07T14:49:21;4.22;;;0.80;;
20802;SDS011;10562;-33.856;151.182;2022-12-07T14:51:52;2.50;;;0.80;;
20802;SDS011;10562;-33.856;151.182;2022-12-07T14:54:23;2.08;;;0.90;;
20802;SDS011;10562;-33.856;151.182;2022-12-07T14:56:58;1.48;;;0.75;;
20802;SDS011;10562;-33.856;151.182;2022-12-07T14:59:29;3.80;;;0.80;;
20802;SDS011;10562;-33.856;151.182;2022-12-07T15:02:02;2.05;;;0.80;;
20802;SDS011;10562;-33.856;151.182;2022-12-07T15:04:34;2.15;;;0.90;;
20802;SDS011;10562;-33.856;151.182;2022-12-07T15:07:05;3.58;;;0.82;;
20802;SDS011;10562;-33.856;151.182;2022-12-07T15:09:43;3.03;;;0.90;;
20802;SDS011;10562;-33.856;151.182;2022-12-07T15:12:14;2.08;;;0.90;;
20802;SDS011;10562;-33.856;151.182;2022-12-07T15:14:45;4.80;;;1.00;;
20802;SDS011;10562;-33.856;151.182;2022-12-07T15:17:17;3.80;;;1.08;;
20802;SDS011;10562;-33.856;151.182;2022-12-07T15:19:48;3.50;;;0.93;;
20802;SDS011;10562;-33.856;151.182;2022-12-07T15:22:19;2.85;;;0.77;;
20802;SDS011;10562;-33.856;151.182;2022-12-07T15:24:50;1.92;;;0.80;;
20802;SDS011;10562;-33.856;151.182;2022-12-07T15:27:21;1.63;;;0.90;;